首页
METAR-TAF:

METAR-TAF

机场 :

成吉思汗國際機場

乌兰巴托, 蒙古国

纬度: 47-55N, 经度: 106-52E, 海拔: 1306米

当前天气观测

该预报发布于19分钟前的18:00 UTC
风速2节,风向多变
温度 -19°C
湿度 84%
气压 1009 hPa
能见度10公里或以上
1500米以下无云,无积雨云

METAR: ZMUB 201800Z VRB01MPS CAVOK M19/M21 Q1009 NOSIG RMK QFE650.3 79

时间: 02:19 (18:19 UTC)

预报

该预报发布于1小时和39分钟前的16:40 UTC
预报有效从20日的 18点(UTC)到 21日的 24点(UTC)
风速4节,风向多变
能见度10公里或以上
散云层高于10000英尺
成为
从 20日的 23点(UTC)到 21日的 01点(UTC)
能見度: 6000
成为
从 21日的 08点(UTC)到 21日的 10点(UTC)
能见度10公里或以上
多云层高于10000英尺
成为
从 21日的 18点(UTC)到 21日的 20点(UTC)
风速10节,风向北转西北
能見度: 6000
散云层高于3000英尺
多云层高于8000英尺

TAF: ZMUB 201640Z 2018/2124 VRB02MPS 9999 SCT100 TNM21/2023Z TXM03/2107Z BECMG 2023/2101 6000 BECMG 2108/2110 9999 NSW BKN100 BECMG 2118/2120 33005MPS 6000 SN SCT030 BKN080

超过4000个机场的气象观测和天气预报(METAR&TAF报告)。

可查询的气象台以黄色和红色小点在地图上表示。

将鼠标移到小点上方,可查看气象台名称。

然后点击查看天气观测和预报。

如需切换地图:点击带黑十字的绿色按钮放大地图;点击带横线的绿色按钮缩小地图;或者点击绿色箭头查看邻近地区的地图。


METAR-TAF: